Time;durP1;ratioP1;P1;durP2;ratioP2;P2;SDS_P1;SDS_P2;PMS_P1;PMS_P2;Temp;Humidity;BMP_temperature;BMP_pressure;BME280_temperature;BME280_humidity;BME280_pressure;Samples;Min_cycle;Max_cycle;Signal;HPM_P1;HPM_P2
2022/09/02 00:01:56;;;;;;;4.33;2.47;;;12.50;99.90;;;12.71;79.00;101722.69;4919241;29;20485;-70
2022/09/02 00:04:27;;;;;;;3.80;2.80;;;12.60;99.90;;;12.64;79.03;101715.31;4921773;29;20798;-70
2022/09/02 00:06:56;;;;;;;1.93;1.73;;;12.60;99.90;;;12.63;79.47;101710.91;4918386;29;20512;-72
2022/09/02 00:09:26;;;;;;;3.40;2.60;;;12.60;99.90;;;12.62;79.64;101713.84;4921247;29;20438;-71
2022/09/02 00:11:57;;;;;;;3.53;3.00;;;12.50;99.90;;;12.69;79.35;101714.72;4916537;29;20420;-70
2022/09/02 00:14:32;;;;;;;5.70;3.50;;;12.60;99.90;;;12.78;78.58;101718.16;4918370;29;20452;-70
2022/09/02 00:17:03;;;;;;;8.73;6.13;;;12.70;99.90;;;12.81;78.49;101713.16;4915957;29;20455;-71
2022/09/02 00:19:32;;;;;;;3.40;2.60;;;12.70;99.90;;;12.79;78.75;101708.94;4916581;29;20432;-70
2022/09/02 00:22:03;;;;;;;3.00;2.33;;;12.70;99.90;;;12.91;78.16;101704.66;4915154;29;20437;-71
2022/09/02 00:24:32;;;;;;;5.00;3.97;;;12.70;99.90;;;12.85;78.34;101694.59;4918128;29;20602;-71
2022/09/02 00:27:01;;;;;;;3.70;2.93;;;12.80;99.90;;;12.93;78.16;101697.16;4919529;29;20487;-70
2022/09/02 00:29:30;;;;;;;3.70;3.20;;;12.80;99.90;;;12.95;78.03;101706.78;4918905;29;20453;-71
2022/09/02 00:32:05;;;;;;;4.40;3.10;;;12.80;99.90;;;12.93;78.20;101703.41;4912267;29;20453;-71
2022/09/02 00:34:58;;;;;;;2.10;1.70;;;12.80;99.90;;;12.96;77.80;101696.78;4915225;29;20454;-71
2022/09/02 00:37:27;;;;;;;4.40;2.97;;;12.90;99.90;;;13.00;77.47;101698.03;4920889;29;20966;-71
2022/09/02 00:39:56;;;;;;;3.93;2.07;;;12.90;99.90;;;13.01;77.26;101694.31;4914208;29;20428;-71
2022/09/02 00:42:27;;;;;;;3.77;1.80;;;12.90;99.90;;;13.14;76.47;101699.84;4913911;29;20843;-71
2022/09/02 00:44:55;;;;;;;4.70;2.97;;;13.00;99.90;;;13.24;75.72;101691.31;4916701;29;20974;-71
2022/09/02 00:50:24;;;;;;;1.80;1.40;;;13.10;99.90;;;13.30;74.88;101691.38;4917164;29;20438;-71
2022/09/02 00:53:02;;;;;;;6.07;2.30;;;13.20;99.90;;;13.34;74.76;101692.66;4916691;29;20414;-71
2022/09/02 00:55:38;;;;;;;2.37;1.60;;;13.20;99.90;;;13.40;74.27;101696.44;4919953;29;20488;-71
2022/09/02 00:58:17;;;;;;;2.97;2.20;;;13.20;99.90;;;13.38;74.57;101693.91;4930762;29;20439;-72
2022/09/02 01:00:51;;;;;;;2.00;1.50;;;13.20;99.90;;;13.45;74.13;101689.38;4919521;29;20515;-71
2022/09/02 01:03:24;;;;;;;2.90;1.67;;;13.30;99.90;;;13.44;74.15;101687.69;4909695;29;20472;-72
2022/09/02 01:05:57;;;;;;;1.77;1.40;;;13.30;99.90;;;13.46;74.10;101684.75;4916153;29;20475;-71
2022/09/02 01:08:34;;;;;;;4.40;1.77;;;13.30;99.90;;;13.49;74.06;101690.63;4915789;29;20483;-71
2022/09/02 01:11:05;;;;;;;2.17;1.33;;;13.40;99.90;;;13.58;73.47;101682.28;4915558;29;20424;-71
2022/09/02 01:13:41;;;;;;;1.70;1.40;;;13.40;99.90;;;13.49;73.96;101685.19;4916090;29;20421;-72
2022/09/02 01:16:19;;;;;;;2.37;1.70;;;13.40;99.90;;;13.43;74.25;101669.69;4913288;29;20449;-71
2022/09/02 01:18:55;;;;;;;6.20;2.37;;;13.40;99.90;;;13.42;74.18;101675.31;4951869;23;20565;-73
2022/09/02 01:21:25;;;;;;;2.50;1.73;;;13.30;99.90;;;13.44;73.92;101668.66;4947726;28;20917;-72
2022/09/02 01:23:57;;;;;;;3.53;1.77;;;13.40;99.90;;;13.42;74.32;101684.31;4943325;28;21044;-73
2022/09/02 01:26:26;;;;;;;4.27;1.80;;;13.30;99.90;;;13.44;73.96;101674.09;4933171;29;20447;-72
2022/09/02 01:28:54;;;;;;;2.30;2.10;;;13.40;99.90;;;13.44;74.24;101676.81;4931078;29;20440;-73
2022/09/02 01:31:27;;;;;;;1.97;1.47;;;13.40;99.90;;;13.46;74.06;101677.44;4948292;28;20721;-73
2022/09/02 01:33:56;;;;;;;3.70;1.47;;;13.40;99.90;;;13.62;73.09;101678.13;4927739;28;20523;-72
2022/09/02 01:36:25;;;;;;;2.00;1.70;;;13.40;99.90;;;13.46;74.00;101674.72;4938271;29;20435;-72
2022/09/02 01:38:56;;;;;;;2.20;1.67;;;13.40;99.90;;;13.48;73.80;101672.63;4940778;28;20535;-72
2022/09/02 01:41:25;;;;;;;2.03;1.43;;;13.40;99.90;;;13.46;73.73;101669.28;4937525;29;20465;-73
2022/09/02 01:43:54;;;;;;;3.53;1.20;;;13.40;99.90;;;13.47;73.34;101670.13;4952228;28;20527;-71
2022/09/02 01:46:23;;;;;;;3.37;1.57;;;13.40;99.90;;;13.41;73.73;101677.19;4945954;28;20869;-72
2022/09/02 01:48:53;;;;;;;2.20;1.40;;;13.40;99.90;;;13.52;73.19;101673.06;4933166;29;20917;-72
2022/09/02 01:51:22;;;;;;;1.80;1.30;;;13.40;99.90;;;13.52;73.08;101675.78;4953168;28;20478;-73
2022/09/02 01:53:52;;;;;;;4.23;1.67;;;13.40;99.90;;;13.57;73.03;101675.19;4935061;29;20458;-72
2022/09/02 01:56:23;;;;;;;1.67;1.50;;;13.40;99.90;;;13.48;73.13;101677.22;4952392;28;20445;-72
2022/09/02 01:58:53;;;;;;;1.60;1.17;;;13.40;99.90;;;13.48;73.25;101672.63;4948509;28;20440;-73
2022/09/02 02:01:22;;;;;;;2.17;1.30;;;13.40;99.90;;;13.43;73.41;101666.97;4945096;29;20446;-73
2022/09/02 02:03:52;;;;;;;2.60;1.53;;;13.40;99.90;;;13.40;73.54;101669.25;4935969;29;20970;-72
2022/09/02 02:06:24;;;;;;;4.00;1.67;;;13.30;99.90;;;13.37;73.90;101667.78;4936059;29;20438;-73
2022/09/02 02:08:54;;;;;;;2.30;1.50;;;13.30;99.90;;;13.38;73.80;101666.72;4956912;28;20798;-73
2022/09/02 02:11:26;;;;;;;2.00;1.53;;;13.30;99.90;;;13.37;74.19;101665.03;4933470;29;20431;-72
2022/09/02 02:13:59;;;;;;;2.70;1.30;;;13.30;99.90;;;13.35;74.06;101661.72;4940052;29;20447;-73
2022/09/02 02:16:29;;;;;;;5.10;1.60;;;13.30;99.90;;;13.30;74.57;101661.47;4937126;29;20525;-73
2022/09/02 02:18:58;;;;;;;2.00;1.53;;;13.30;99.90;;;13.32;74.26;101664.81;4939425;28;20431;-73
2022/09/02 02:21:28;;;;;;;2.67;1.60;;;13.20;99.90;;;13.35;74.49;101663.59;4940325;29;20507;-73
2022/09/02 02:24:00;;;;;;;9.67;1.67;;;13.20;99.90;;;13.26;74.69;101662.91;4929971;29;20452;-73
2022/09/02 02:26:30;;;;;;;1.97;1.60;;;13.20;99.90;;;13.21;75.02;101662.69;4940475;29;20425;-71
2022/09/02 02:29:00;;;;;;;5.83;1.60;;;13.20;99.90;;;13.23;74.98;101657.03;4955267;28;20957;-72
2022/09/02 02:31:30;;;;;;;1.90;1.70;;;13.20;99.90;;;13.14;75.68;101658.22;4941221;29;20442;-72
2022/09/02 02:34:00;;;;;;;3.40;1.80;;;13.10;99.90;;;13.18;75.57;101657.63;4939094;29;20478;-72
2022/09/02 02:36:29;;;;;;;2.33;1.47;;;13.10;99.90;;;13.29;74.77;101659.78;4942491;29;20430;-72
2022/09/02 02:39:00;;;;;;;8.13;2.30;;;13.20;99.90;;;13.15;75.63;101659.91;4944408;29;20542;-72
2022/09/02 02:41:32;;;;;;;3.17;1.50;;;13.10;99.90;;;13.12;75.75;101663.06;4936794;29;20494;-72
2022/09/02 02:44:01;;;;;;;3.40;1.67;;;13.10;99.90;;;13.16;75.90;101664.31;4929269;29;20451;-72
2022/09/02 02:46:32;;;;;;;2.50;1.60;;;13.00;99.90;;;13.18;75.79;101663.06;4930480;29;20440;-72
2022/09/02 02:49:01;;;;;;;2.60;1.83;;;13.10;99.90;;;13.12;76.02;101661.16;4935871;29;20812;-71
2022/09/02 02:51:31;;;;;;;1.40;1.20;;;13.10;99.90;;;13.09;76.15;101666.97;4938540;29;20455;-71
2022/09/02 02:54:00;;;;;;;2.00;1.50;;;13.00;99.90;;;13.04;76.47;101658.56;4933976;28;20519;-72
2022/09/02 02:56:31;;;;;;;2.00;1.37;;;13.00;99.90;;;12.97;76.90;101652.28;4936774;29;20498;-72
2022/09/02 02:59:03;;;;;;;2.40;1.87;;;12.90;99.90;;;13.01;76.57;101650.81;4932038;29;20465;-71
2022/09/02 03:01:34;;;;;;;1.67;1.20;;;12.90;99.90;;;12.90;77.17;101662.25;4936882;28;20418;-71
2022/09/02 03:04:06;;;;;;;3.30;1.70;;;12.90;99.90;;;12.88;77.30;101654.28;4949828;28;20555;-71
2022/09/02 03:06:35;;;;;;;1.90;1.57;;;12.80;99.90;;;12.89;77.40;101657.84;4935642;28;20455;-71
2022/09/02 03:09:06;;;;;;;4.20;1.97;;;12.80;99.90;;;12.84;77.45;101658.44;4949645;28;20549;-71
2022/09/02 03:11:38;;;;;;;1.60;1.17;;;12.80;99.90;;;12.85;77.58;101657.41;4950253;28;20439;-71
2022/09/02 03:14:08;;;;;;;3.20;1.50;;;12.80;99.90;;;12.84;77.69;101660.31;4936163;29;20476;-71
2022/09/02 03:16:38;;;;;;;1.93;1.73;;;12.80;99.90;;;12.82;77.72;101659.69;4929790;29;20498;-71
2022/09/02 03:19:08;;;;;;;2.00;1.40;;;12.80;99.90;;;12.81;77.67;101652.56;4953119;28;20896;-72
2022/09/02 03:21:37;;;;;;;2.03;1.70;;;12.70;99.90;;;12.72;78.09;101656.47;4938115;29;20543;-71
2022/09/02 03:24:10;;;;;;;9.53;2.00;;;12.70;99.90;;;12.71;78.12;101647.50;4937877;29;20450;-70
2022/09/02 03:26:42;;;;;;;1.53;1.43;;;12.70;99.90;;;12.61;78.53;101647.84;4939294;29;20955;-71
2022/09/02 03:29:12;;;;;;;7.27;1.70;;;12.60;99.90;;;12.70;78.18;101655.81;4931816;29;20495;-73
2022/09/02 03:31:43;;;;;;;2.90;1.87;;;12.60;99.90;;;12.63;78.36;101644.94;4935639;29;20689;-70
2022/09/02 03:34:13;;;;;;;3.17;1.63;;;12.60;99.90;;;12.55;78.66;101645.91;4932286;29;20558;-70
2022/09/02 03:36:43;;;;;;;4.00;1.77;;;12.60;99.90;;;12.56;78.94;101649.44;4950973;29;20451;-71
2022/09/02 03:39:15;;;;;;;6.13;2.50;;;12.50;99.90;;;12.56;78.97;101644.88;4955207;29;20459;-71
2022/09/02 03:41:49;;;;;;;3.10;2.13;;;12.50;99.90;;;12.54;79.01;101648.81;4952239;29;20427;-72
2022/09/02 03:44:18;;;;;;;3.07;2.20;;;12.50;99.90;;;12.54;79.00;101641.50;4945023;29;20443;-72
2022/09/02 03:46:47;;;;;;;2.77;1.80;;;12.50;99.90;;;12.47;79.29;101645.22;4946598;29;20423;-72
2022/09/02 03:49:17;;;;;;;4.53;2.13;;;12.40;99.90;;;12.42;79.50;101642.25;4932950;29;20427;-71
2022/09/02 03:51:46;;;;;;;4.27;1.97;;;12.40;99.90;;;12.40;79.59;101639.72;4934765;29;20418;-71
2022/09/02 03:54:15;;;;;;;4.73;2.20;;;12.40;99.90;;;12.40;79.46;101649.72;4928784;29;20475;-72
2022/09/02 03:56:45;;;;;;;2.60;1.93;;;12.30;99.90;;;12.30;79.55;101644.63;4944444;28;20454;-72
2022/09/02 03:59:18;;;;;;;3.63;2.20;;;12.30;99.90;;;12.39;79.22;101648.88;4944955;28;20864;-72
2022/09/02 04:01:47;;;;;;;2.27;2.07;;;12.30;99.90;;;12.29;79.56;101645.69;4942307;29;20495;-72
2022/09/02 04:04:19;;;;;;;2.30;2.10;;;12.20;99.90;;;12.31;79.60;101646.31;4935626;28;20559;-72
2022/09/02 04:06:52;;;;;;;2.00;1.77;;;12.20;99.90;;;12.34;79.06;101645.09;4940032;29;20435;-71
2022/09/02 04:09:22;;;;;;;3.03;2.07;;;12.30;99.90;;;12.23;79.65;101643.75;4935992;29;20427;-73
2022/09/02 04:11:51;;;;;;;5.03;1.90;;;12.20;99.90;;;12.27;79.62;101644.19;4940217;29;20423;-71
2022/09/02 04:14:22;;;;;;;2.27;2.07;;;12.20;99.90;;;12.30;79.91;101650.06;4942402;29;20435;-71
2022/09/02 04:21:13;;;;;;;3.43;2.20;;;12.20;99.90;;;12.34;79.21;101651.38;4937606;29;20432;-72
2022/09/02 04:23:43;;;;;;;5.47;2.03;;;12.30;99.90;;;12.24;79.55;101655.44;4934482;28;20785;-72
2022/09/02 04:26:17;;;;;;;3.00;1.93;;;12.20;99.90;;;12.19;79.77;101654.16;4934285;29;20451;-71
2022/09/02 04:28:47;;;;;;;3.10;2.77;;;12.20;99.90;;;12.33;79.13;101646.13;4931839;29;20431;-73
2022/09/02 04:31:21;;;;;;;2.33;2.00;;;12.20;99.90;;;12.26;79.12;101653.34;4934684;29;20420;-72
2022/09/02 04:33:52;;;;;;;5.03;2.93;;;12.20;99.90;;;12.19;79.37;101654.16;4931243;29;20479;-72
2022/09/02 04:36:23;;;;;;;2.67;1.90;;;12.20;99.90;;;12.12;79.88;101646.97;4931586;29;20419;-70
2022/09/02 04:38:55;;;;;;;3.10;1.60;;;12.10;99.90;;;12.23;79.45;101649.19;4931346;29;20468;-73
2022/09/02 04:41:31;;;;;;;3.57;2.43;;;12.10;99.90;;;12.37;78.90;101650.13;4942521;28;20453;-71
2022/09/02 04:44:06;;;;;;;3.20;2.20;;;12.20;99.90;;;12.24;79.26;101653.56;4934982;29;20451;-72
2022/09/02 04:46:40;;;;;;;3.93;2.00;;;12.20;99.90;;;12.28;79.04;101657.56;4934739;29;20857;-71
2022/09/02 04:49:15;;;;;;;3.10;2.00;;;12.20;99.90;;;12.37;78.73;101656.41;4932577;29;20474;-72
2022/09/02 04:51:45;;;;;;;2.67;1.63;;;12.20;99.90;;;12.20;79.30;101660.41;4927910;29;20446;-73
2022/09/02 04:54:15;;;;;;;2.90;2.17;;;12.20;99.90;;;12.26;79.23;101656.91;4945533;28;21114;-71
2022/09/02 04:56:48;;;;;;;2.73;2.07;;;12.20;99.90;;;12.26;79.01;101659.63;4927350;29;20483;-72
2022/09/02 04:59:21;;;;;;;2.10;1.60;;;12.20;99.90;;;12.34;78.73;101656.81;4936207;29;20430;-72
2022/09/02 05:02:01;;;;;;;3.20;2.03;;;12.20;99.90;;;12.29;78.79;101663.84;4923108;29;20426;-71
2022/09/02 05:04:32;;;;;;;7.83;2.50;;;12.20;99.90;;;12.23;79.20;101657.31;4937810;29;20435;-72
2022/09/02 05:07:02;;;;;;;2.93;1.90;;;12.20;99.90;;;12.27;79.35;101661.31;4938905;29;20450;-71
2022/09/02 05:09:34;;;;;;;2.80;2.20;;;12.20;99.90;;;12.28;79.26;101657.56;4942180;29;20480;-72
2022/09/02 05:12:06;;;;;;;11.97;2.70;;;12.20;99.90;;;12.36;78.70;101665.56;4938546;29;20456;-71
2022/09/02 05:14:44;;;;;;;3.77;2.57;;;12.20;99.90;;;12.33;78.92;101657.84;4930051;29;20463;-72
2022/09/02 05:17:14;;;;;;;4.70;2.00;;;12.20;99.90;;;12.46;78.63;101666.09;4935422;29;20435;-71
2022/09/02 05:19:46;;;;;;;4.50;2.80;;;12.30;99.90;;;12.55;78.03;101664.91;4936830;29;20435;-71
2022/09/02 05:22:17;;;;;;;4.27;3.30;;;12.40;99.90;;;12.64;77.53;101668.31;4942913;29;20455;-71
2022/09/02 05:24:46;;;;;;;2.73;2.50;;;12.40;99.90;;;12.68;77.56;101668.78;4946027;28;20559;-72
2022/09/02 05:27:16;;;;;;;3.20;2.10;;;12.50;99.90;;;12.76;76.81;101676.75;4933384;29;20834;-73
2022/09/02 05:29:47;;;;;;;9.73;2.53;;;12.60;99.90;;;12.83;76.76;101672.22;4937814;28;20433;-72
2022/09/02 05:32:21;;;;;;;2.90;2.20;;;12.70;99.90;;;12.92;76.37;101671.03;4931415;29;20469;-71
2022/09/02 05:34:53;;;;;;;4.70;1.70;;;12.70;99.90;;;12.99;76.19;101669.19;4945092;28;20894;-71
2022/09/02 05:37:24;;;;;;;8.80;2.00;;;12.80;99.90;;;12.99;76.01;101675.47;4931951;29;20469;-72
2022/09/02 05:39:53;;;;;;;4.70;2.10;;;12.80;99.90;;;13.12;75.51;101672.00;4934788;29;20946;-71
2022/09/02 05:42:23;;;;;;;3.20;2.30;;;12.90;99.90;;;13.28;75.03;101668.97;4935597;29;20533;-73
2022/09/02 05:44:52;;;;;;;2.87;2.03;;;13.00;99.90;;;13.44;74.46;101671.38;4949113;28;20486;-72
2022/09/02 05:47:25;;;;;;;2.83;2.23;;;13.10;99.90;;;13.53;73.83;101665.75;4927040;29;20460;-73
2022/09/02 05:49:55;;;;;;;2.70;2.27;;;13.20;99.90;;;13.43;74.39;101669.69;4941027;28;20464;-72
2022/09/02 05:52:28;;;;;;;2.57;2.10;;;13.30;99.90;;;13.62;73.81;101667.25;4938918;29;20935;-73
2022/09/02 05:54:59;;;;;;;2.97;2.60;;;13.30;99.90;;;13.72;73.21;101668.53;4932202;29;20479;-72
2022/09/02 05:57:28;;;;;;;3.03;2.07;;;13.40;99.90;;;13.91;72.37;101662.31;4940088;28;20913;-71
2022/09/02 06:00:07;;;;;;;4.57;1.97;;;13.60;99.90;;;13.78;72.46;101664.19;4955862;28;20510;-71
2022/09/02 06:02:45;;;;;;;3.07;2.67;;;13.60;99.90;;;13.77;72.78;101674.22;4941384;28;20443;-71
2022/09/02 06:05:41;;;;;;;3.10;1.47;;;13.60;99.90;;;13.66;73.05;101671.22;4928376;29;20439;-72
2022/09/02 06:08:19;;;;;;;4.70;2.67;;;13.60;99.90;;;13.86;72.41;101669.41;4931773;29;20415;-71
2022/09/02 06:10:48;;;;;;;3.80;2.30;;;13.60;99.90;;;13.75;72.56;101672.72;4938747;29;20914;-71
2022/09/02 06:13:21;;;;;;;3.43;2.20;;;13.60;99.90;;;13.70;73.34;101669.81;4940921;29;20438;-72
2022/09/02 06:15:53;;;;;;;3.03;2.10;;;13.50;99.90;;;13.83;72.92;101673.41;4938018;29;20454;-71
2022/09/02 06:18:27;;;;;;;2.60;1.80;;;13.60;99.90;;;13.76;72.96;101671.69;4931113;29;20521;-72
2022/09/02 06:20:58;;;;;;;5.53;2.87;;;13.60;99.90;;;13.99;72.60;101668.63;4938149;29;20757;-71
2022/09/02 06:23:35;;;;;;;3.00;2.60;;;13.70;99.90;;;14.15;71.70;101668.22;4935554;29;20884;-72
2022/09/02 06:26:04;;;;;;;3.60;2.40;;;13.80;99.90;;;14.33;71.11;101669.28;4944800;28;20560;-72
2022/09/02 06:28:34;;;;;;;5.20;2.17;;;14.00;99.90;;;14.45;70.73;101668.72;4938390;29;20947;-72
2022/09/02 06:31:09;;;;;;;8.73;2.60;;;14.10;99.90;;;14.58;70.19;101676.88;4944127;29;20459;-74
2022/09/02 06:33:40;;;;;;;5.30;2.57;;;14.30;99.90;;;14.58;70.58;101674.16;4939153;29;20447;-71
2022/09/02 06:36:13;;;;;;;7.23;2.80;;;14.30;99.90;;;14.94;69.25;101669.13;4927414;29;20459;-72
2022/09/02 06:38:45;;;;;;;5.13;2.40;;;14.50;99.90;;;14.91;68.72;101666.78;4947949;28;20435;-72
2022/09/02 06:41:22;;;;;;;2.87;2.53;;;14.70;99.90;;;14.99;68.85;101673.94;4951577;29;20459;-74
2022/09/02 06:43:55;;;;;;;3.10;2.20;;;14.70;99.90;;;15.17;68.28;101665.91;4952455;29;20826;-71
2022/09/02 06:46:32;;;;;;;3.20;2.90;;;14.80;99.90;;;15.41;67.82;101669.81;4939270;29;20804;-73
2022/09/02 06:49:10;;;;;;;4.93;2.43;;;15.00;99.90;;;15.65;67.14;101671.84;4934565;29;20463;-72
2022/09/02 06:51:44;;;;;;;3.67;2.00;;;15.20;99.90;;;15.86;66.31;101668.81;4946875;28;20478;-72
2022/09/02 06:54:17;;;;;;;5.10;2.13;;;15.40;99.00;;;15.79;66.17;101673.47;4934009;29;20509;-72
2022/09/02 06:56:51;;;;;;;6.97;3.10;;;15.50;96.90;;;15.53;66.95;101671.72;4939754;29;20938;-73
2022/09/02 06:59:25;;;;;;;4.17;2.30;;;15.50;96.10;;;15.53;67.63;101668.16;4937352;28;20493;-73
2022/09/02 07:01:58;;;;;;;3.40;2.30;;;15.40;97.60;;;15.44;68.00;101658.50;4934712;29;20454;-72
2022/09/02 07:07:20;;;;;;;6.87;2.30;;;15.20;98.30;;;15.29;68.84;101666.09;4956036;28;20525;-73
2022/09/02 07:09:54;;;;;;;3.17;2.30;;;15.10;99.90;;;15.35;68.62;101666.06;4954286;28;20456;-73
2022/09/02 07:12:25;;;;;;;6.43;3.27;;;15.20;99.90;;;15.62;67.67;101667.69;4954518;28;20460;-74
2022/09/02 07:15:04;;;;;;;8.80;2.53;;;15.40;99.80;;;15.80;67.16;101661.50;4951942;28;20443;-75
2022/09/02 07:17:38;;;;;;;8.83;2.20;;;15.50;98.50;;;15.98;66.69;101664.34;4936059;29;20817;-74
2022/09/02 07:20:16;;;;;;;7.73;2.30;;;15.70;97.90;;;16.07;66.15;101668.47;4928774;29;20431;-73
2022/09/02 07:22:54;;;;;;;3.40;2.23;;;15.90;96.20;;;16.22;66.13;101672.78;4932974;29;20452;-73
2022/09/02 07:25:26;;;;;;;4.37;2.30;;;15.90;96.30;;;16.29;65.61;101668.97;4934014;29;20495;-73
2022/09/02 07:27:55;;;;;;;5.03;2.60;;;16.10;94.50;;;16.33;65.67;101674.81;4928165;29;21517;-73
2022/09/02 07:30:26;;;;;;;3.20;2.90;;;16.20;93.60;;;16.58;65.05;101672.97;4930993;29;20456;-73
2022/09/02 07:33:04;;;;;;;3.00;2.40;;;16.40;92.70;;;16.73;64.65;101670.75;4934446;29;20458;-73
2022/09/02 07:35:37;;;;;;;4.47;2.97;;;16.50;92.20;;;16.89;63.66;101664.69;4938067;29;20945;-73
2022/09/02 07:38:09;;;;;;;2.47;2.23;;;16.60;88.90;;;16.99;63.68;101663.38;4933889;29;20539;-73
2022/09/02 07:40:40;;;;;;;8.83;2.40;;;16.70;87.80;;;17.03;63.34;101665.41;4949662;28;20455;-73
2022/09/02 07:43:11;;;;;;;3.77;2.33;;;16.80;84.70;;;17.15;63.32;101668.22;4931876;29;20451;-73
2022/09/02 07:45:43;;;;;;;4.17;2.90;;;16.90;83.30;;;17.27;62.65;101672.72;4928862;29;20441;-73
2022/09/02 07:48:14;;;;;;;3.87;2.37;;;17.00;81.70;;;17.42;62.71;101672.34;4927863;29;20557;-73
2022/09/02 07:50:46;;;;;;;5.50;2.27;;;17.10;79.60;;;17.51;61.95;101670.97;4933618;29;20445;-73
2022/09/02 07:53:18;;;;;;;3.30;1.93;;;17.30;75.10;;;17.59;61.66;101676.16;4935638;29;20473;-73
2022/09/02 07:55:49;;;;;;;3.60;2.37;;;17.40;71.20;;;17.67;61.83;101669.56;4933145;29;20951;-73
2022/09/02 07:58:21;;;;;;;3.87;2.40;;;17.40;72.70;;;17.78;61.81;101674.22;4931951;29;20446;-73
2022/09/02 08:00:54;;;;;;;2.40;1.77;;;17.50;70.90;;;18.01;60.70;101665.31;4931181;29;20434;-73
2022/09/02 08:03:26;;;;;;;4.50;2.40;;;17.70;66.90;;;18.17;60.73;101667.34;4930541;29;20463;-73
2022/09/02 08:05:59;;;;;;;3.70;2.53;;;17.90;65.00;;;18.21;60.08;101668.56;4929160;29;20431;-73
2022/09/02 08:08:29;;;;;;;8.10;2.97;;;18.00;59.10;;;18.40;59.60;101666.56;4930718;29;20559;-73
2022/09/02 08:10:58;;;;;;;3.73;2.33;;;18.10;57.60;;;18.51;58.34;101668.50;4932399;29;20939;-73
2022/09/02 08:13:27;;;;;;;3.93;2.90;;;18.30;51.40;;;18.48;58.40;101671.72;4933039;29;20503;-73
2022/09/02 08:15:56;;;;;;;3.80;2.10;;;18.20;50.40;;;18.52;58.61;101670.19;4933523;29;20432;-71
2022/09/02 08:18:26;;;;;;;2.90;1.80;;;18.30;50.50;;;18.62;58.16;101665.81;4932092;29;20451;-74
2022/09/02 08:20:55;;;;;;;2.43;1.77;;;18.40;48.70;;;18.77;58.04;101672.75;4934861;29;20449;-72
2022/09/02 08:23:26;;;;;;;3.33;2.17;;;18.50;48.30;;;19.02;56.56;101665.13;4931243;29;20457;-74
2022/09/02 08:26:06;;;;;;;4.20;2.00;;;18.70;42.90;;;19.16;56.38;101661.06;4924683;29;20419;-73
2022/09/02 08:28:35;;;;;;;4.90;2.13;;;18.80;41.90;;;19.36;55.75;101664.25;4931420;29;20479;-73
2022/09/02 08:31:08;;;;;;;2.23;1.70;;;19.00;39.70;;;19.39;55.67;101663.75;4931111;29;20948;-73
2022/09/02 08:33:37;;;;;;;2.50;1.60;;;19.10;38.20;;;19.30;55.66;101661.63;4933545;29;20479;-72
2022/09/02 08:36:10;;;;;;;2.23;1.83;;;19.10;35.50;;;19.18;55.92;101664.38;4931163;29;20533;-73
2022/09/02 08:38:42;;;;;;;3.03;2.03;;;19.10;35.00;;;19.36;55.88;101660.66;4929758;29;20993;-72
2022/09/02 08:41:22;;;;;;;2.57;1.60;;;19.10;35.60;;;19.53;54.89;101662.44;4933137;28;20452;-72
2022/09/02 08:43:53;;;;;;;2.60;1.97;;;19.20;33.10;;;19.54;54.74;101663.28;4932158;29;20471;-72
2022/09/02 08:46:26;;;;;;;3.90;1.80;;;19.30;32.20;;;19.53;54.49;101662.44;4927470;29;20603;-73
2022/09/02 08:49:00;;;;;;;3.27;1.50;;;19.30;31.00;;;19.70;54.09;101658.94;4930423;29;20508;-73
2022/09/02 08:51:36;;;;;;;2.40;1.47;;;19.30;29.80;;;19.73;53.01;101655.69;4929181;29;20444;-72
2022/09/02 08:54:17;;;;;;;2.90;1.60;;;19.40;27.60;;;19.80;53.18;101651.72;4922210;29;20454;-73
2022/09/02 08:56:47;;;;;;;1.97;1.40;;;19.50;27.20;;;19.98;52.76;101656.19;4925809;29;20437;-73
2022/09/02 08:59:16;;;;;;;3.00;1.50;;;19.70;26.10;;;20.00;52.00;101651.28;4924987;29;20436;-73
2022/09/02 09:01:53;;;;;;;2.80;1.47;;;19.70;24.80;;;20.27;51.92;101649.59;4929410;29;20974;-73
2022/09/02 09:04:47;;;;;;;4.23;1.83;;;19.90;24.30;;;20.21;51.10;101649.72;4929457;28;20521;-73
2022/09/02 09:07:29;;;;;;;3.40;1.50;;;20.00;22.30;;;20.23;50.71;101650.34;4927072;29;20464;-72
2022/09/02 09:10:20;;;;;;;2.00;1.33;;;20.00;21.20;;;20.12;48.33;101643.81;4929930;29;20453;-72
2022/09/02 09:13:47;;;;;;;2.27;0.90;;;19.90;18.20;;;20.10;48.94;101640.47;4928399;29;20453;-74
2022/09/02 09:16:30;;;;;;;1.37;1.00;;;19.90;16.90;;;20.17;48.98;101641.16;4890753;29;20463;-72
2022/09/02 09:19:10;;;;;;;2.10;1.07;;;19.90;16.10;;;19.99;48.25;101637.81;4934819;29;20419;-72
2022/09/02 09:21:40;;;;;;;1.83;1.07;;;19.90;14.50;;;20.26;47.78;101631.44;4947996;28;20948;-72
2022/09/02 09:24:26;;;;;;;2.13;1.10;;;20.00;14.10;;;20.21;47.48;101633.25;4932912;29;20793;-73
2022/09/02 09:26:58;;;;;;;1.50;0.97;;;19.90;13.10;;;20.58;46.57;101641.88;4930795;29;20418;-72
2022/09/02 09:29:27;;;;;;;1.33;1.00;;;20.20;12.10;;;20.72;45.00;101640.47;4932830;29;20871;-71
2022/09/02 09:32:00;;;;;;;1.63;1.10;;;20.40;9.80;;;20.74;45.54;101630.88;4932641;29;20450;-74
2022/09/02 09:34:58;;;;;;;5.03;1.10;;;20.40;9.80;;;20.90;45.23;101631.94;4926763;29;20544;-74
2022/09/02 09:37:32;;;;;;;1.60;0.90;;;20.50;9.10;;;21.16;45.40;101622.97;4940736;28;20435;-72
2022/09/02 09:40:29;;;;;;;1.97;1.73;;;20.70;9.50;;;21.10;45.39;101617.63;4933550;29;20801;-73
2022/09/02 09:43:14;;;;;;;1.50;1.03;;;20.80;9.00;;;20.96;45.15;101622.66;4927507;29;20467;-73
2022/09/02 09:45:45;;;;;;;2.20;1.30;;;20.80;8.70;;;20.71;45.52;101622.28;4935079;29;20492;-72
2022/09/02 09:48:26;;;;;;;6.50;1.60;;;20.60;8.00;;;20.85;46.13;101615.34;4934160;29;20556;-73
2022/09/02 09:51:14;;;;;;;1.73;1.20;;;20.50;8.70;;;21.07;44.80;101613.44;4933906;29;20444;-74
2022/09/02 09:53:44;;;;;;;3.00;1.10;;;20.70;7.50;;;21.18;44.48;101609.78;4928960;29;20523;-73
2022/09/02 09:56:35;;;;;;;1.70;1.20;;;20.80;7.30;;;21.50;44.52;101606.31;4931661;28;20470;-72
2022/09/02 09:59:37;;;;;;;1.50;1.00;;;21.00;7.40;;;21.70;42.82;101612.06;4933614;29;20446;-72
2022/09/02 10:02:06;;;;;;;4.10;1.50;;;21.20;5.40;;;21.59;42.79;101600.09;4933404;29;20456;-73
2022/09/02 10:04:35;;;;;;;2.17;1.13;;;21.30;4.10;;;21.31;43.45;101610.47;4933379;29;20515;-73
2022/09/02 10:07:13;;;;;;;3.13;1.13;;;21.20;4.20;;;21.19;43.03;101600.44;4932799;29;20468;-73
2022/09/02 10:09:42;;;;;;;1.93;1.30;;;21.00;3.70;;;21.54;42.76;101597.28;4931858;29;20481;-73
2022/09/02 10:12:13;;;;;;;1.97;1.10;;;21.10;3.80;;;21.79;42.46;101595.88;4928661;29;20467;-73
2022/09/02 10:14:47;;;;;;;8.90;1.37;;;21.30;3.60;;;21.62;42.84;101604.25;4934262;29;20467;-72
2022/09/02 10:17:40;;;;;;;1.97;0.90;;;21.20;3.40;;;21.30;43.06;101600.59;4932544;29;20454;-73
2022/09/02 10:20:19;;;;;;;2.13;1.07;;;21.00;2.90;;;21.08;43.75;101604.13;4933904;29;20459;-73
2022/09/02 10:23:17;;;;;;;2.07;1.00;;;20.90;3.60;;;20.94;42.97;101594.56;4934501;29;20459;-73
2022/09/02 10:26:07;;;;;;;1.60;1.00;;;20.70;2.90;;;21.28;42.44;101589.81;4936135;29;20914;-73
2022/09/02 10:29:22;;;;;;;1.63;0.93;;;20.90;2.20;;;21.64;42.23;101586.38;4930100;29;20994;-73
2022/09/02 10:32:18;;;;;;;1.50;1.00;;;21.20;2.20;;;22.03;42.46;101584.31;4932800;29;20445;-72
2022/09/02 10:35:04;;;;;;;2.00;0.90;;;21.50;2.80;;;22.52;39.98;101586.94;4929483;29;20980;-72
2022/09/02 10:37:53;;;;;;;1.63;1.13;;;21.90;1.00;;;22.57;40.49;101584.22;4933637;29;20543;-74
2022/09/02 10:40:30;;;;;;;2.23;1.40;;;22.10;1.00;;;22.84;39.09;101579.47;4939561;29;20443;-73
2022/09/02 10:43:05;;;;;;;2.00;1.40;;;22.30;1.00;;;22.65;39.07;101580.97;4936393;29;20443;-74
2022/09/02 10:45:44;;;;;;;2.10;1.40;;;22.30;1.00;;;22.31;38.72;101579.63;4931552;29;20935;-72
2022/09/02 10:48:39;;;;;;;3.00;1.43;;;22.00;1.00;;;22.01;40.25;101581.00;4937174;29;20440;-72
2022/09/02 10:51:21;;;;;;;2.50;1.53;;;21.70;1.00;;;22.45;39.74;101581.66;4934583;29;20422;-73